Flight Track Log - Related Links

Times and Time Zones

All times are in EST time to prevent confusion due to time zone crossing. See the AFL150 flight status page for this flight to view local times or setup timezone preferences in your user account.

Time Position Orientation Groundspeed Altitude Reporting Facility
EST Latitude Longitude Course Direction KTS MPH feet Rate Location/Type
Thu 04:30:00 AM 56.1647 37.0937 313° West  Level FlightAware Approximate
Thu 04:31:00 AM 56.2405 36.9466 313° West  Level FlightAware Approximate
Thu 04:32:00 AM 56.3161 36.7989 313° West  Level FlightAware Approximate
Thu 04:33:00 AM 56.3916 36.6507 313° West  Level FlightAware Approximate
Thu 04:34:00 AM 56.4669 36.5018 313° West  Level FlightAware Approximate
Thu 04:35:00 AM 56.5420 36.3524 312° West  Level FlightAware Approximate
Thu 04:36:00 AM 56.6169 36.2024 312° West  Level FlightAware Approximate
Thu 04:37:00 AM 56.6917 36.0518 312° West  Level FlightAware Approximate
Thu 04:38:00 AM 56.7662 35.9006 312° West  Level FlightAware Approximate
Thu 04:39:00 AM 56.8406 35.7487 312° West  Level FlightAware Approximate
Thu 04:40:00 AM 56.9148 35.5963 312° West  Level FlightAware Approximate
Thu 04:41:00 AM 56.9888 35.4433 312° West  Level FlightAware Approximate
Thu 04:42:00 AM 57.0626 35.2897 312° West  Level FlightAware Approximate
Thu 04:43:00 AM 57.1363 35.1354 311° West  Level FlightAware Approximate
Thu 04:44:00 AM 57.2097 34.9805 311° West  Level FlightAware Approximate
Thu 04:45:00 AM 57.2830 34.8251 311° West  Level FlightAware Approximate
Thu 04:46:00 AM 57.3560 34.6690 311° West  Level FlightAware Approximate
Thu 04:47:00 AM 57.4289 34.5123 311° West  Level FlightAware Approximate
Thu 04:48:00 AM 57.5016 34.3549 311° West  Level FlightAware Approximate
Thu 04:49:00 AM 57.5201 34.3097 310° West  Level FlightAware Approximate
Thu 04:50:00 AM 57.5913 34.1494 310° West  Level FlightAware Approximate
Thu 04:51:00 AM 57.6621 33.9886 310° West  Level FlightAware Approximate
Thu 04:52:00 AM 57.7328 33.8272 309° West  Level FlightAware Approximate
Thu 04:53:00 AM 57.8033 33.6651 309° West  Level FlightAware Approximate
Thu 04:54:00 AM 57.8736 33.5023 309° West  Level FlightAware Approximate
Thu 04:55:00 AM 57.9437 33.3390 309° West  Level FlightAware Approximate
Thu 04:56:00 AM 58.0135 33.1750 309° West  Level FlightAware Approximate
Thu 04:57:00 AM 58.0832 33.0103 309° West  Level FlightAware Approximate
Thu 04:58:00 AM 58.1526 32.8451 309° West  Level FlightAware Approximate
Thu 04:59:00 AM 58.2218 32.6791 308° West  Level FlightAware Approximate
Thu 04:59:41 AM 56.4887 31.8975 308° West 419 482 34,000  Level FlightAware ADS-B
Thu 05:00:27 AM 56.5015 31.7390 278° West 422 486 34,000  Level FlightAware ADS-B
Thu 05:01:41 AM 56.5221 31.4818 278° West 422 486 34,000  Level FlightAware ADS-B
Thu 05:02:41 AM 56.5402 31.2740 279° West 425 489 34,000  Level FlightAware ADS-B
Thu 05:03:41 AM 56.5788 31.0690 289° West 431 496 34,000  Level FlightAware ADS-B
Thu 05:04:40 AM 56.6384 30.8881 301° West 437 503 34,000  Level FlightAware ADS-B
Thu 05:05:41 AM 56.7180 30.7162 310° West 436 502 34,000  Level FlightAware ADS-B
Thu 05:06:40 AM 56.7864 30.5349 305° West 434 499 34,000  Level FlightAware ADS-B
Thu 05:07:41 AM 56.8545 30.3530 304° West 439 505 34,000  Level FlightAware ADS-B
Thu 05:08:41 AM 56.9220 30.1697 304° West 440 506 34,000  Level FlightAware ADS-B
Thu 05:09:39 AM 56.9882 29.9883 304° West 439 505 34,000  Level FlightAware ADS-B
Thu 05:10:40 AM 57.0563 29.8002 304° West 439 505 34,000  Level FlightAware ADS-B
Thu 05:11:40 AM 57.1222 29.6168 304° West 440 506 34,000  Level FlightAware ADS-B
Thu 05:12:39 AM 57.1895 29.4282 303° West 439 505 34,000  Level FlightAware ADS-B
Thu 05:13:41 AM 57.2566 29.2383 303° West 436 502 34,000  Level FlightAware ADS-B
Thu 05:14:39 AM 57.3209 29.0564 303° West 429 494 34,000  Level FlightAware ADS-B
Thu 05:15:37 AM 57.3833 28.8772 303° West 426 490 34,000  Level FlightAware ADS-B
Thu 05:16:41 AM 57.4493 28.6863 303° West 424 488 34,000  Level FlightAware ADS-B
Thu 05:17:42 AM 57.5129 28.5009 303° West 424 488 34,000  Level FlightAware ADS-B
Thu 05:18:42 AM 57.5760 28.3160 303° West 425 489 34,000  Level FlightAware ADS-B
Thu 05:19:41 AM 57.6385 28.1312 302° West 426 490 34,000  Level FlightAware ADS-B
Thu 05:20:36 AM 57.6964 27.9592 302° West 428 493 34,000  Level FlightAware ADS-B
Thu 05:21:42 AM 57.7652 27.7533 302° West 429 494 34,000  Level FlightAware ADS-B
Thu 05:22:42 AM 57.8269 27.5666 302° West 429 494 34,000  Level FlightAware ADS-B
Thu 05:23:42 AM 57.8713 27.3596 292° West 426 490 34,000  Level FlightAware ADS-B
Thu 05:24:42 AM 57.9131 27.1529 291° West 427 491 34,000  Level FlightAware ADS-B
Thu 05:25:43 AM 57.9553 26.9423 291° West 427 491 34,000  Level FlightAware ADS-B
Thu 05:26:42 AM 57.9962 26.7358 291° West 429 494 34,000  Level FlightAware ADS-B
Thu 05:27:43 AM 58.0376 26.5251 290° West 431 496 34,000  Level FlightAware ADS-B
Thu 05:28:43 AM 58.0789 26.3119 290° West 430 495 34,000  Level FlightAware ADS-B
Thu 05:29:43 AM 58.1192 26.1024 290° West 430 495 34,000  Level FlightAware ADS-B
Thu 05:30:44 AM 58.1605 25.8853 290° West 431 496 34,000  Level FlightAware ADS-B
Thu 05:31:43 AM 58.2001 25.6744 290° West 431 496 34,000  Level FlightAware ADS-B
Thu 05:32:44 AM 58.2396 25.4622 290° West 429 494 34,000  Level FlightAware ADS-B
Thu 05:33:44 AM 58.2779 25.2532 289° West 432 497 34,000  Level FlightAware ADS-B
Thu 05:34:44 AM 58.3183 25.0312 289° West 430 495 34,000  Level FlightAware ADS-B
Thu 05:35:45 AM 58.3571 24.8145 289° West 430 495 34,000  Level FlightAware ADS-B
Thu 05:36:47 AM 58.3963 24.5936 289° West 431 496 34,000  Level FlightAware ADS-B
Thu 05:37:47 AM 58.4333 24.3767 288° West 430 495 34,000  Level FlightAware ADS-B
Thu 05:39:10 AM 58.4309 24.3921 106° East 431 496 34,000  Level FlightAware ADS-B
Thu 05:50:15 AM 58.8198 21.6218 294° West 433 498 34,000  Level FlightAware ADS-B
Thu 05:50:49 AM 58.8355 21.4985 284° West 432 497 34,000  Level FlightAware ADS-B
Thu 05:51:29 AM 58.8550 21.3444 284° West 433 498 34,000  Level FlightAware ADS-B
Thu 05:52:29 AM 58.8913 21.1250 288° West 440 506 34,000  Level FlightAware ADS-B
Thu 05:53:06 AM 58.9142 20.9928 289° West 438 504 34,000  Level FlightAware ADS-B
Thu 05:53:41 AM 58.9301 20.8976 288° West 438 504 34,000  Level FlightAware ADS-B
Thu 05:54:34 AM 58.9691 20.6600 288° West 436 502 34,000  Level FlightAware ADS-B
Thu 05:55:06 AM 58.9884 20.5412 288° West 433 498 34,000  Level FlightAware ADS-B
Thu 05:55:49 AM 59.0139 20.3839 287° West 427 491 34,000  Level FlightAware ADS-B
Thu 05:56:29 AM 59.0334 20.2609 287° West 426 490 34,000  Level FlightAware ADS-B
Thu 05:57:09 AM 59.0604 20.0906 287° West 426 490 34,000  Level FlightAware ADS-B
Thu 05:57:49 AM 59.0824 19.9503 287° West 427 491 34,000  Level FlightAware ADS-B
Thu 05:58:30 AM 59.1062 19.7976 287° West 428 493 34,000  Level FlightAware ADS-B
Thu 05:59:09 AM 59.1294 19.6472 287° West 430 495 34,000  Level FlightAware ADS-B
Thu 05:59:49 AM 59.1516 19.5023 287° West 434 499 34,000  Level FlightAware ADS-B
Thu 06:00:29 AM 59.1748 19.3492 287° West 437 503 34,000  Level FlightAware ADS-B
Thu 06:01:09 AM 59.1972 19.2004 286° West 438 504 34,000  Level FlightAware ADS-B
Thu 06:01:49 AM 59.2191 19.0534 286° West 439 505 34,000  Level FlightAware ADS-B
Thu 06:02:29 AM 59.2420 18.8976 286° West 441 507 34,000  Level FlightAware ADS-B
Thu 06:03:09 AM 59.2644 18.7448 286° West 439 505 34,000  Level FlightAware ADS-B
Thu 06:03:49 AM 59.2864 18.5928 286° West 436 502 34,000  Level FlightAware ADS-B
Thu 06:04:29 AM 59.3080 18.4424 286° West 437 503 34,000  Level FlightAware ADS-B
Thu 06:05:09 AM 59.3295 18.2913 286° West 439 505 34,000  Level FlightAware ADS-B
Thu 06:05:49 AM 59.3503 18.1436 286° West 440 506 34,000  Level FlightAware ADS-B
Thu 06:06:29 AM 59.3716 17.9918 285° West 440 506 34,000  Level FlightAware ADS-B
Thu 06:07:09 AM 59.3941 17.8282 285° West 440 506 34,000  Level FlightAware ADS-B
Thu 06:07:49 AM 59.4146 17.6784 285° West 442 509 34,000  Level FlightAware ADS-B
Thu 06:08:29 AM 59.4352 17.5269 285° West 440 506 34,000  Level FlightAware ADS-B
Thu 06:09:04 AM 59.4537 17.3886 285° West 439 505 34,000  Level FlightAware ADS-B
Thu 06:09:40 AM 59.4742 17.2344 285° West 436 502 34,000  Level FlightAware ADS-B
Thu 06:09:58 AM 59.4836 17.1631 285° West 436 502 34,000  Level FlightAware ADS-B
Thu 06:10:39 AM 59.5037 17.0096 285° West 437 503 34,000  Level FlightAware ADS-B
Thu 06:11:10 AM 59.5148 16.9246 284° West 441 507 34,000  Level FlightAware ADS-B
Thu 06:11:27 AM 59.5282 16.8205 284° West 438 504 34,000  Level FlightAware ADS-B
Thu 06:12:09 AM 59.5472 16.6718 284° West 440 506 34,000  Level FlightAware ADS-B
Thu 06:12:40 AM 59.5639 16.5403 284° West 438 504 34,000  Level FlightAware ADS-B
Thu 06:13:10 AM 59.5756 16.4475 284° West 440 506 34,000  Level FlightAware ADS-B
Thu 06:13:54 AM 59.6001 16.2502 284° West 439 505 34,000  Level FlightAware ADS-B
Thu 06:14:29 AM 59.6153 16.1278 284° West 442 509 34,000  Level FlightAware ADS-B
Thu 06:15:09 AM 59.6344 15.9716 284° West 442 509 34,000  Level FlightAware ADS-B
Thu 06:15:17 AM 59.6367 15.9526 284° West 441 507 34,000  Level FlightAware ADS-B
Thu 06:15:48 AM 59.6475 15.8633 283° West 441 507 34,000  Level FlightAware ADS-B
Thu 06:16:25 AM 59.6713 15.6644 283° West 444 511 34,000  Level FlightAware ADS-B
Thu 06:16:57 AM 59.6864 15.5359 283° West 446 513 34,000  Level FlightAware ADS-B
Thu 06:17:42 AM 59.7074 15.3562 283° West 448 516 34,000  Level FlightAware ADS-B
Thu 06:18:26 AM 59.7292 15.1672 283° West 449 517 34,000  Level FlightAware ADS-B (KSAN)
Thu 06:18:56 AM 59.7416 15.0588 283° West 450 518 34,000  Level FlightAware ADS-B
Thu 06:19:27 AM 59.7554 14.9371 283° West 451 519 34,000  Level FlightAware ADS-B
Thu 06:20:11 AM 59.7754 14.7584 283° West 451 519 34,000  Level FlightAware ADS-B
Thu 06:20:41 AM 59.7891 14.6356 283° West 452 520 34,000  Level FlightAware ADS-B
Thu 06:21:11 AM 59.8023 14.5147 282° West 453 521 34,000  Level FlightAware ADS-B
Thu 06:21:42 AM 59.8159 14.3898 282° West 455 524 34,000  Level FlightAware ADS-B
Thu 06:22:14 AM 59.8315 14.2447 282° West 455 524 34,000  Level FlightAware ADS-B (KSAN)
Thu 06:22:56 AM 59.8482 14.0879 282° West 454 522 34,000  Level FlightAware ADS-B
Thu 06:23:26 AM 59.8611 13.9649 282° West 454 522 34,000  Level FlightAware ADS-B
Thu 06:23:59 AM 59.8767 13.8138 282° West 455 524 34,000  Level FlightAware ADS-B (KSAN)
Thu 06:24:41 AM 59.8926 13.6592 282° West 455 524 34,000  Level FlightAware ADS-B
Thu 06:25:11 AM 59.9052 13.5357 282° West 455 524 34,000  Level FlightAware ADS-B
Thu 06:25:42 AM 59.9196 13.3920 281° West 454 522 34,000  Level FlightAware ADS-B (KSAN)
Thu 06:26:26 AM 59.9363 13.2242 281° West 456 525 34,000  Level FlightAware ADS-B
Thu 06:27:10 AM 59.9538 13.0454 281° West 456 525 34,000  Level FlightAware ADS-B
Thu 06:27:41 AM 59.9661 12.9170 281° West 456 525 34,000  Level FlightAware ADS-B
Thu 06:28:19 AM 59.9809 12.7623 281° West 456 525 34,000  Level FlightAware ADS-B
Thu 06:28:57 AM 59.9953 12.6060 280° West 452 520 34,000  Level FlightAware ADS-B
Thu 06:29:32 AM 60.0089 12.4453 280° West 455 524 34,000  Level FlightAware ADS-B (KSAN)
Thu 06:29:38 AM 60.0099 12.4356 282° West 452 520 34,000  Level FlightAware ADS-B
Thu 06:30:08 AM 60.0267 12.3145 286° West 460 529 34,000  Level FlightAware ADS-B
Thu 06:31:00 AM 60.0596 12.1004 287° West 461 531 34,000  Level FlightAware ADS-B
Thu 06:31:45 AM 60.0883 11.9027 286° West 462 532 34,000  Level FlightAware ADS-B (KSAN)
Thu 06:32:19 AM 60.1081 11.7646 286° West 459 528 34,000  Level FlightAware ADS-B (KSAN)
Thu 06:32:49 AM 60.1263 11.6365 286° West 460 529 34,000  Level FlightAware ADS-B (KSAN)
Thu 06:49:27 AM 60.6351 7.5312 282° West 460 529 34,000  Level FlightAware ADS-B (EGBP)
Thu 06:50:05 AM 60.6520 7.3703 282° West 458 527 34,000  Level FlightAware ADS-B (EGBP)
Thu 06:50:46 AM 60.6704 7.1960 282° West 454 522 34,000  Level FlightAware ADS-B (EGBP)
Thu 06:51:27 AM 60.6877 7.0286 282° West 455 524 34,000  Level FlightAware ADS-B (EGBP)
Thu 06:52:07 AM 60.7047 6.8611 282° West 456 525 34,000  Level FlightAware ADS-B (EGBP)
Thu 06:52:45 AM 60.7213 6.6964 282° West 458 527 34,000  Level FlightAware ADS-B (EGBP)
Thu 06:53:26 AM 60.7384 6.5254 282° West 460 529 34,000  Level FlightAware ADS-B (EGBP)
Thu 06:54:06 AM 60.7550 6.3560 281° West 455 524 34,000  Level FlightAware ADS-B (EGBP)
Thu 06:54:45 AM 60.7710 6.1900 281° West 453 521 34,000  Level FlightAware ADS-B (EGBP)
Thu 06:55:26 AM 60.7871 6.0202 281° West 451 519 34,000  Level FlightAware ADS-B (EGBP)
Thu 06:56:06 AM 60.8030 5.8517 281° West 450 518 34,000  Level FlightAware ADS-B (EGBP)
Thu 06:56:46 AM 60.8182 5.6862 281° West 452 520 34,000  Level FlightAware ADS-B (EGBP)
Thu 06:57:23 AM 60.8323 5.5309 281° West 454 522 34,000 Level FlightAware ADS-B (EGBP)
Thu 06:59:00 AM 60.8630 5.1662 280° West  Level Estimated
Thu 07:00:00 AM 60.8815 4.9402 280° West  Level Estimated
Thu 07:01:00 AM 60.8996 4.7139 279° West  Level Estimated
Thu 07:02:00 AM 60.9173 4.4874 279° West  Level Estimated
Thu 07:03:00 AM 60.9346 4.2607 279° West  Level Estimated
Thu 07:04:00 AM 60.9516 4.0337 279° West  Level Estimated
Thu 07:05:00 AM 60.9682 3.8065 279° West  Level Estimated
Thu 07:06:00 AM 60.9844 3.5790 278° West  Level Estimated
Thu 07:07:00 AM 61.0002 3.3513 278° West  Level Estimated
Thu 07:08:00 AM 61.0156 3.1234 278° West  Level Estimated
Thu 07:09:00 AM 61.0307 2.8953 278° West  Level Estimated
Thu 07:10:00 AM 61.0453 2.6669 278° West  Level Estimated
Thu 07:11:00 AM 61.0596 2.4383 277° West  Level Estimated
Thu 07:12:00 AM 61.0735 2.2096 277° West  Level Estimated
Thu 07:13:00 AM 61.0870 1.9806 277° West  Level Estimated
Thu 07:14:00 AM 61.1001 1.7515 277° West  Level Estimated
Thu 07:15:00 AM 61.1128 1.5221 277° West  Level Estimated
Thu 07:16:00 AM 61.1251 1.2926 276° West  Level Estimated
Thu 07:17:00 AM 61.1371 1.0629 276° West  Level Estimated
Thu 07:18:00 AM 61.1486 0.8330 276° West  Level Estimated
Thu 07:19:00 AM 61.1598 0.6030 276° West  Level Estimated
Thu 07:20:00 AM 61.1705 0.3728 276° West  Level Estimated
Thu 07:21:00 AM 61.1809 0.1425 275° West  Level Estimated
Thu 07:22:00 AM 61.1909 -0.0880 275° West  Level Estimated
Thu 07:23:00 AM 61.2005 -0.3187 275° West  Level Estimated
Thu 07:24:00 AM 61.2097 -0.5494 275° West  Level Estimated
Thu 07:25:00 AM 61.2185 -0.7804 275° West  Level Estimated
Thu 07:26:00 AM 61.2270 -1.0114 274° West  Level Estimated
Thu 07:27:00 AM 61.2350 -1.2426 274° West  Level Estimated
Thu 07:28:00 AM 61.2426 -1.4738 274° West  Level Estimated
Thu 07:29:00 AM 61.2499 -1.7052 274° West  Level Estimated
Thu 07:30:00 AM 61.2567 -1.9367 274° West  Level Estimated
Thu 07:31:00 AM 61.2631 -2.1683 273° West  Level Estimated
Thu 07:32:00 AM 61.2692 -2.4000 273° West  Level Estimated
Thu 07:33:00 AM 61.2749 -2.6317 273° West  Level Estimated
Thu 07:34:00 AM 61.2801 -2.8636 273° West  Level Estimated
Thu 07:35:00 AM 61.2850 -3.0955 273° West  Level Estimated
Thu 07:36:00 AM 61.2895 -3.3275 272° West  Level Estimated
Thu 07:37:00 AM 61.2936 -3.5595 272° West  Level Estimated
Thu 07:38:00 AM 61.2972 -3.7916 272° West  Level Estimated
Thu 07:39:00 AM 61.3005 -4.0238 272° West  Level Estimated
Thu 07:40:00 AM 61.3034 -4.2560 272° West  Level Estimated
Thu 07:41:00 AM 61.3059 -4.4882 271° West  Level Estimated
Thu 07:42:00 AM 61.3080 -4.7205 271° West  Level Estimated
Thu 07:43:00 AM 61.3097 -4.9528 271° West  Level Estimated
Thu 07:44:00 AM 61.3110 -5.1852 271° West  Level Estimated
Thu 07:45:00 AM 61.3119 -5.4175 271° West  Level Estimated
Thu 07:46:00 AM 61.3124 -5.6499 270° West  Level Estimated
Thu 07:47:00 AM 61.3125 -5.8822 270° West  Level Estimated
Thu 07:48:00 AM 61.3123 -6.1146 270° West  Level Estimated
Thu 07:49:00 AM 61.3116 -6.3470 270° West  Level Estimated
Thu 07:50:00 AM 61.3105 -6.5793 270° West  Level Estimated
Thu 07:51:00 AM 61.3090 -6.8116 269° West  Level Estimated
Thu 07:52:00 AM 61.3072 -7.0439 269° West  Level Estimated
Thu 07:53:00 AM 61.3049 -7.2762 269° West  Level Estimated
Thu 07:54:00 AM 61.3022 -7.5084 269° West  Level Estimated
Thu 07:55:00 AM 61.2992 -7.7406 269° West  Level Estimated
Thu 07:56:00 AM 61.2957 -7.9727 268° West  Level Estimated
Thu 07:57:00 AM 61.2919 -8.2048 268° West  Level Estimated
Thu 07:58:00 AM 61.2876 -8.4368 268° West  Level Estimated
Thu 07:59:00 AM 61.2830 -8.6688 268° West  Level Estimated
Thu 08:00:00 AM 61.2779 -8.9007 268° West  Level Estimated
Thu 08:01:00 AM 61.2725 -9.1325 267° West  Level Estimated
Thu 08:02:00 AM 61.2667 -9.3642 267° West  Level Estimated
Thu 08:03:00 AM 61.2605 -9.5959 267° West  Level Estimated
Thu 08:04:00 AM 61.2538 -9.8274 267° West  Level Estimated
Thu 08:05:00 AM 61.2468 -10.0589 266° West  Level Estimated
Thu 08:06:00 AM 61.2394 -10.2902 266° West  Level Estimated
Thu 08:07:00 AM 61.2316 -10.5214 266° West  Level Estimated
Thu 08:08:00 AM 61.2234 -10.7525 266° West  Level Estimated
Thu 08:09:00 AM 61.2148 -10.9835 266° West  Level Estimated
Thu 08:10:00 AM 61.2058 -11.2144 265° West  Level Estimated
Thu 08:11:00 AM 61.1965 -11.4451 265° West  Level Estimated
Thu 08:12:00 AM 61.1867 -11.6757 265° West  Level Estimated
Thu 08:13:00 AM 61.1766 -11.9061 265° West  Level Estimated
Thu 08:14:00 AM 61.1660 -12.1364 265° West  Level Estimated
Thu 08:15:00 AM 61.1551 -12.3665 264° West  Level Estimated
Thu 08:16:00 AM 61.1437 -12.5965 264° West  Level Estimated
Thu 08:17:00 AM 61.1320 -12.8263 264° West  Level Estimated
Thu 08:18:00 AM 61.1199 -13.0559 264° West  Level Estimated
Thu 08:19:00 AM 61.1074 -13.2853 264° West  Level Estimated
Thu 08:20:00 AM 61.0945 -13.5146 263° West  Level Estimated
Thu 08:21:00 AM 61.0812 -13.7437 263° West  Level Estimated
Thu 08:22:00 AM 61.0676 -13.9725 263° West  Level Estimated
Thu 08:23:00 AM 61.0535 -14.2012 263° West  Level Estimated
Thu 08:24:00 AM 61.0391 -14.4297 263° West  Level Estimated
Thu 08:25:00 AM 61.0243 -14.6580 262° West  Level Estimated
Thu 08:26:00 AM 61.0091 -14.8860 262° West  Level Estimated
Thu 08:27:00 AM 60.9935 -15.1138 262° West  Level Estimated
Thu 08:28:00 AM 60.9775 -15.3414 262° West  Level Estimated
Thu 08:29:00 AM 60.9612 -15.5688 262° West  Level Estimated
Thu 08:30:00 AM 60.9444 -15.7959 261° West  Level Estimated
Thu 08:31:00 AM 60.9273 -16.0228 261° West  Level Estimated
Thu 08:32:00 AM 60.9098 -16.2494 261° West  Level Estimated
Thu 08:33:00 AM 60.8919 -16.4758 261° West  Level Estimated
Thu 08:34:00 AM 60.8737 -16.7020 261° West  Level Estimated
Thu 08:35:00 AM 60.8550 -16.9278 260° West  Level Estimated
Thu 08:36:00 AM 60.8360 -17.1534 260° West  Level Estimated
Thu 08:37:00 AM 60.8166 -17.3788 260° West  Level Estimated
Thu 08:38:00 AM 60.7968 -17.6038 260° West  Level Estimated
Thu 08:39:00 AM 60.7767 -17.8286 260° West  Level Estimated
Thu 08:40:00 AM 60.7562 -18.0531 259° West  Level Estimated
Thu 08:41:00 AM 60.7353 -18.2773 259° West  Level Estimated
Thu 08:42:00 AM 60.7140 -18.5012 259° West  Level Estimated
Thu 08:43:00 AM 60.6923 -18.7248 259° West  Level Estimated
Thu 08:44:00 AM 60.6703 -18.9481 259° West  Level Estimated
Thu 08:45:00 AM 60.6479 -19.1711 259° West  Level Estimated
Thu 08:46:00 AM 60.6252 -19.3938 258° West  Level Estimated
Thu 08:47:00 AM 60.6020 -19.6162 258° West  Level Estimated
Thu 08:48:00 AM 60.5785 -19.8382 258° West  Level Estimated
Thu 08:49:00 AM 60.5547 -20.0600 258° West  Level Estimated
Thu 08:50:00 AM 60.5304 -20.2814 258° West  Level Estimated
Thu 08:51:00 AM 60.5059 -20.5024 257° West  Level Estimated
Thu 08:52:00 AM 60.4809 -20.7232 257° West  Level Estimated
Thu 08:53:00 AM 60.4556 -20.9435 257° West  Level Estimated
Thu 08:54:00 AM 60.4299 -21.1636 257° West  Level Estimated
Thu 08:55:00 AM 60.4038 -21.3833 257° West  Level Estimated
Thu 08:56:00 AM 60.3774 -21.6026 256° West  Level Estimated
Thu 08:57:00 AM 60.3506 -21.8216 256° West  Level Estimated
Thu 08:58:00 AM 60.3235 -22.0402 256° West  Level Estimated
Thu 08:59:00 AM 60.2960 -22.2584 256° West  Level Estimated
Thu 09:00:00 AM 60.2682 -22.4763 256° West  Level Estimated
Thu 09:01:00 AM 60.2400 -22.6938 255° West  Level Estimated
Thu 09:02:00 AM 60.2114 -22.9109 255° West  Level Estimated
Thu 09:03:00 AM 60.1825 -23.1277 255° West  Level Estimated
Thu 09:04:00 AM 60.1532 -23.3441 255° West  Level Estimated
Thu 09:05:00 AM 60.1236 -23.5600 255° West  Level Estimated
Thu 09:06:00 AM 60.0936 -23.7756 255° West  Level Estimated
Thu 09:07:00 AM 60.0633 -23.9908 254° West  Level Estimated
Thu 09:08:00 AM 60.0326 -24.2056 254° West  Level Estimated
Thu 09:09:00 AM 60.0016 -24.4200 254° West  Level Estimated
Thu 09:10:00 AM 59.9703 -24.6340 254° West  Level Estimated
Thu 09:11:00 AM 59.9386 -24.8476 254° West  Level Estimated
Thu 09:12:00 AM 59.9065 -25.0608 253° West  Level Estimated
Thu 09:13:00 AM 59.8741 -25.2735 253° West  Level Estimated
Thu 09:14:00 AM 59.8414 -25.4859 253° West  Level Estimated
Thu 09:15:00 AM 59.8083 -25.6978 253° West  Level Estimated
Thu 09:16:00 AM 59.7749 -25.9093 253° West  Level Estimated
Thu 09:17:00 AM 59.7411 -26.1204 252° West  Level Estimated
Thu 09:18:00 AM 59.7070 -26.3310 252° West  Level Estimated
Thu 09:19:00 AM 59.6726 -26.5412 252° West  Level Estimated
Thu 09:20:00 AM 59.6378 -26.7510 252° West  Level Estimated
Thu 09:21:00 AM 59.6027 -26.9604 252° West  Level Estimated
Thu 09:22:00 AM 59.5673 -27.1693 252° West  Level Estimated
Thu 09:23:00 AM 59.5315 -27.3777 251° West  Level Estimated
Thu 09:24:00 AM 59.4954 -27.5858 251° West  Level Estimated
Thu 09:25:00 AM 59.4590 -27.7933 251° West  Level Estimated
Thu 09:26:00 AM 59.4222 -28.0005 251° West  Level Estimated
Thu 09:27:00 AM 59.3851 -28.2071 251° West  Level Estimated
Thu 09:28:00 AM 59.3477 -28.4134 250° West  Level Estimated
Thu 09:29:00 AM 59.3100 -28.6191 250° West  Level Estimated
Thu 09:30:00 AM 59.2719 -28.8244 250° West  Level Estimated
Thu 09:31:00 AM 59.2336 -29.0293 250° West  Level Estimated
Thu 09:32:00 AM 59.1949 -29.2337 250° West  Level Estimated
Thu 09:33:00 AM 59.1558 -29.4376 250° West  Level Estimated
Thu 09:34:00 AM 59.1165 -29.6411 249° West  Level Estimated
Thu 09:35:00 AM 59.0768 -29.8441 249° West  Level Estimated
Thu 09:36:00 AM 59.0369 -30.0466 249° West  Level Estimated
Thu 09:37:00 AM 58.9966 -30.2486 249° West  Level Estimated
Thu 09:38:00 AM 58.9560 -30.4502 249° West  Level Estimated
Thu 09:39:00 AM 58.9151 -30.6513 249° West  Level Estimated
Thu 09:40:00 AM 58.8738 -30.8519 248° West  Level Estimated
Thu 09:41:00 AM 58.8323 -31.0521 248° West  Level Estimated
Thu 09:42:00 AM 58.7904 -31.2517 248° West  Level Estimated
Thu 09:43:00 AM 58.7483 -31.4509 248° West  Level Estimated
Thu 09:44:00 AM 58.7058 -31.6496 248° West  Level Estimated
Thu 09:45:00 AM 58.6631 -31.8478 248° West  Level Estimated
Thu 09:46:00 AM 58.6200 -32.0455 247° West  Level Estimated
Thu 09:47:00 AM 58.5766 -32.2427 247° West  Level Estimated
Thu 09:48:00 AM 58.5329 -32.4395 247° West  Level Estimated
Thu 09:49:00 AM 58.4890 -32.6357 247° West  Level Estimated
Thu 09:50:00 AM 58.4447 -32.8315 247° West  Level Estimated
Thu 09:51:00 AM 58.4001 -33.0267 247° West  Level Estimated
Thu 09:52:00 AM 58.3553 -33.2215 246° West  Level Estimated
Thu 09:53:00 AM 58.3101 -33.4158 246° West  Level Estimated
Thu 09:54:00 AM 58.2646 -33.6096 246° West  Level Estimated
Thu 09:55:00 AM 58.2189 -33.8028 246° West  Level Estimated
Thu 09:56:00 AM 58.1729 -33.9956 246° West  Level Estimated
Thu 09:57:00 AM 58.1265 -34.1879 246° West  Level Estimated
Thu 09:58:00 AM 58.0799 -34.3797 245° Southwest  Level Estimated
Thu 09:59:00 AM 58.0330 -34.5709 245° Southwest  Level Estimated
Thu 10:00:00 AM 57.9858 -34.7617 245° Southwest  Level Estimated
Thu 10:01:00 AM 57.9384 -34.9520 245° Southwest  Level Estimated
Thu 10:02:00 AM 57.8906 -35.1417 245° Southwest  Level Estimated
Thu 10:03:00 AM 57.8425 -35.3310 245° Southwest  Level Estimated
Thu 10:04:00 AM 57.7942 -35.5197 244° Southwest  Level Estimated
Thu 10:05:00 AM 57.7456 -35.7080 244° Southwest  Level Estimated
Thu 10:06:00 AM 57.6968 -35.8957 244° Southwest  Level Estimated
Thu 10:07:00 AM 57.6476 -36.0830 244° Southwest  Level Estimated
Thu 10:08:00 AM 57.5982 -36.2697 244° Southwest  Level Estimated
Thu 10:09:00 AM 57.5485 -36.4559 244° Southwest  Level Estimated
Thu 10:10:00 AM 57.4985 -36.6416 243° Southwest  Level Estimated
Thu 10:11:00 AM 57.4482 -36.8268 243° Southwest  Level Estimated
Thu 10:12:00 AM 57.3977 -37.0115 243° Southwest  Level Estimated
Thu 10:13:00 AM 57.3469 -37.1957 243° Southwest  Level Estimated
Thu 10:14:00 AM 57.2958 -37.3794 243° Southwest  Level Estimated
Thu 10:15:00 AM 57.2445 -37.5625 243° Southwest  Level Estimated
Thu 10:16:00 AM 57.1929 -37.7452 243° Southwest  Level Estimated
Thu 10:17:00 AM 57.1411 -37.9273 242° Southwest  Level Estimated
Thu 10:18:00 AM 57.0890 -38.1090 242° Southwest  Level Estimated
Thu 10:19:00 AM 57.0366 -38.2901 242° Southwest  Level Estimated
Thu 10:20:00 AM 56.9839 -38.4707 242° Southwest  Level Estimated
Thu 10:21:00 AM 56.9310 -38.6507 242° Southwest  Level Estimated
Thu 10:22:00 AM 56.8779 -38.8303 242° Southwest  Level Estimated
Thu 10:23:00 AM 56.8245 -39.0094 241° Southwest  Level Estimated
Thu 10:24:00 AM 56.7708 -39.1880 241° Southwest  Level Estimated
Thu 10:25:00 AM 56.7169 -39.3660 241° Southwest  Level Estimated
Thu 10:26:00 AM 56.6627 -39.5435 241° Southwest  Level Estimated
Thu 10:27:00 AM 56.6082 -39.7206 241° Southwest  Level Estimated
Thu 10:28:00 AM 56.5536 -39.8971 241° Southwest  Level Estimated
Thu 10:29:00 AM 56.4986 -40.0731 241° Southwest  Level Estimated
Thu 10:30:00 AM 56.4435 -40.2486 240° Southwest  Level Estimated
Thu 10:31:00 AM 56.3880 -40.4236 240° Southwest  Level Estimated
Thu 10:32:00 AM 56.3324 -40.5980 240° Southwest  Level Estimated
Thu 10:33:00 AM 56.2764 -40.7720 240° Southwest  Level Estimated
Thu 10:34:00 AM 56.2203 -40.9455 240° Southwest  Level Estimated
Thu 10:35:00 AM 56.1639 -41.1184 240° Southwest  Level Estimated
Thu 10:36:00 AM 56.1072 -41.2909 240° Southwest  Level Estimated
Thu 10:36:48 AM 63.1500 -54.8667 239° Southwest 260 299 36,000  Level Gander Center
Thu 10:37:00 AM 56.0504 -41.4628 239° Southwest  Level Estimated
Thu 10:37:48 AM 63.1167 -55.1333 255° West 390 449 36,000  Level Gander Center
Thu 10:38:00 AM 55.9932 -41.6342 239° Southwest  Level Estimated
Thu 10:38:48 AM 63.0667 -55.3500 243° Southwest 420 483 36,000  Level Gander Center
Thu 10:39:00 AM 55.9301 -41.8221 239° Southwest  Level Estimated
Thu 10:39:48 AM 63.0167 -55.5833 245° Southwest 430 495 36,000  Level Gander Center
Thu 10:40:00 AM 55.8668 -42.0093 239° Southwest  Level Estimated
Thu 10:40:48 AM 62.9667 -55.8167 245° Southwest 420 483 36,000  Level Gander Center
Thu 10:41:00 AM 55.8032 -42.1959 239° Southwest  Level Estimated
Thu 10:41:48 AM 62.9333 -56.0833 255° West 420 483 36,000  Level Gander Center
Thu 10:42:00 AM 55.7393 -42.3820 239° Southwest  Level Estimated
Thu 10:42:48 AM 62.8667 -56.3000 236° Southwest 420 483 36,000  Level Gander Center
Thu 10:43:48 AM 62.8167 -56.5333 245° Southwest 430 495 36,000  Level Gander Center
Thu 10:44:48 AM 62.7667 -56.7500 243° Southwest 430 495 36,000  Level Gander Center
Thu 10:45:48 AM 62.7167 -57.0167 248° West 430 495 36,000  Level Gander Center
Thu 10:46:48 AM 62.6667 -57.2333 243° Southwest 440 506 36,000  Level Gander Center
Thu 10:47:48 AM 62.6167 -57.4667 245° Southwest 440 506 36,000  Level Gander Center
Thu 10:48:48 AM 62.5500 -57.7167 240° Southwest 430 495 36,000  Level Gander Center
Thu 10:49:48 AM 62.5000 -57.9500 245° Southwest 440 506 36,000  Level Gander Center
Thu 10:50:48 AM 62.4333 -58.2000 240° Southwest 440 506 36,000  Level Gander Center
Thu 10:51:48 AM 62.4000 -58.4167 252° West 430 495 36,000  Level Gander Center
Thu 10:52:48 AM 62.3500 -58.6333 244° Southwest 430 495 36,000  Level Gander Center
Thu 10:53:48 AM 62.2833 -58.8500 237° Southwest 430 495 36,000  Level Gander Center
Thu 10:54:48 AM 62.2500 -59.1167 255° West 430 495 36,000  Level Gander Center
Thu 10:55:48 AM 62.1833 -59.3333 237° Southwest 430 495 36,000  Level Gander Center
Thu 10:56:48 AM 62.1333 -59.5500 244° Southwest 430 495 36,000  Level Gander Center
Thu 10:57:48 AM 62.0833 -59.7667 244° Southwest 420 483 36,000  Level Gander Center
Thu 10:58:48 AM 62.0000 -59.9833 231° Southwest 430 495 36,000  Level Gander Center
Thu 10:59:48 AM 61.9167 -60.1500 223° Southwest 430 495 36,000  Level Gander Center
Thu 11:00:48 AM 61.8167 -60.3333 221° Southwest 420 483 36,000  Level Gander Center
Thu 11:01:48 AM 61.7500 -60.4833 227° Southwest 420 483 36,000  Level Gander Center
Thu 11:02:48 AM 61.6667 -60.6500 224° Southwest 430 495 36,000  Level Gander Center
Thu 11:03:48 AM 61.5667 -60.8000 216° Southwest 430 495 36,000  Level Gander Center
Thu 11:04:48 AM 61.4833 -60.9667 224° Southwest 430 495 36,000  Level Gander Center
Thu 11:05:48 AM 61.3833 -61.1500 221° Southwest 420 483 36,000  Level Gander Center
Thu 11:06:48 AM 61.3000 -61.2833 218° Southwest 430 495 36,000  Level Gander Center
Thu 11:07:48 AM 61.2167 -61.4500 224° Southwest 420 483 36,000  Level Gander Center
Thu 11:08:48 AM 61.1167 -61.5833 213° Southwest 420 483 36,000  Level Gander Center
Thu 11:09:48 AM 61.0333 -61.7667 227° Southwest 430 495 36,000  Level Gander Center
Thu 11:10:48 AM 60.9333 -61.9333 219° Southwest 430 495 36,000  Level Gander Center
Thu 11:11:48 AM 60.8500 -62.0667 218° Southwest 420 483 36,000  Level Gander Center
Thu 11:12:48 AM 60.7667 -62.2333 224° Southwest 430 495 36,000  Level Gander Center
Thu 11:13:48 AM 60.6667 -62.3667 213° Southwest 420 483 36,000  Level Gander Center
Thu 11:14:48 AM 60.6000 -62.6000 240° Southwest 460 529 36,000  Level Gander Center
Thu 11:15:48 AM 60.5500 -62.8333 247° West 430 495 36,000  Level Gander Center
Thu 11:16:48 AM 60.5000 -63.0333 243° Southwest 430 495 36,000  Level Gander Center
Thu 11:17:48 AM 60.4667 -63.2667 254° West 440 506 36,000  Level Gander Center
Thu 11:18:48 AM 60.4333 -63.5000 254° West 430 495 36,000  Level Gander Center
Thu 11:19:48 AM 60.3833 -63.7333 247° West 430 495 36,000  Level Gander Center
Thu 11:20:48 AM 60.3333 -63.9667 247° West 430 495 36,000  Level Gander Center
Thu 11:21:48 AM 60.2833 -64.2000 247° West 430 495 36,000  Level Gander Center
Thu 11:22:48 AM 60.2500 -64.4333 254° West 430 495 36,000  Level Gander Center
Thu 11:23:48 AM 60.2167 -64.6333 252° West 430 495 36,000  Level Gander Center
Thu 11:24:48 AM 60.1500 -64.8500 238° Southwest 430 495 36,000  Level Gander Center
Thu 11:25:48 AM 60.1167 -65.0833 254° West 430 495 36,000  Level Gander Center
Thu 11:26:48 AM 60.0500 -65.2500 231° Southwest 430 495 36,000  Level Gander Center
Thu 11:27:48 AM 59.9500 -65.4333 223° Southwest 420 483 36,000  Level Gander Center
Thu 11:28:48 AM 59.8667 -65.5833 222° Southwest 430 495 36,000  Level Gander Center
Thu 11:29:48 AM 59.7833 -65.7500 225° Southwest 430 495 36,000  Level Gander Center
Thu 11:30:48 AM 59.6833 -65.9000 217° Southwest 430 495 36,000  Level Gander Center
Thu 11:31:48 AM 59.6000 -66.0500 222° Southwest 430 495 36,000  Level Gander Center
Thu 11:32:48 AM 59.5167 -66.2000 222° Southwest 430 495 36,000  Level Gander Center
Thu 11:33:48 AM 59.4000 -66.3500 213° Southwest 430 495 36,000  Level Gander Center
Thu 11:34:48 AM 59.3167 -66.5000 223° Southwest 430 495 36,000  Level Gander Center
Thu 11:35:48 AM 59.2333 -66.6500 223° Southwest 420 483 36,000  Level Gander Center
Thu 11:36:48 AM 59.1333 -66.8000 218° Southwest 420 483 36,000  Level Gander Center
Thu 11:37:48 AM 59.0500 -66.9500 223° Southwest 420 483 36,000  Level Gander Center
Thu 11:38:48 AM 58.9667 -67.1000 223° Southwest 430 495 36,000  Level Gander Center
Thu 11:39:48 AM 58.8667 -67.2500 218° Southwest 430 495 36,000  Level Gander Center
Thu 11:40:48 AM 58.7833 -67.4000 223° Southwest 430 495 36,000  Level Gander Center
Thu 11:41:48 AM 58.6833 -67.5333 215° Southwest 430 495 36,000  Level Gander Center
Thu 11:42:48 AM 58.6000 -67.6833 223° Southwest 430 495 36,000  Level Gander Center
Thu 11:43:48 AM 58.5167 -67.8333 223° Southwest 430 495 36,000  Level Gander Center
Thu 11:44:48 AM 58.4167 -67.9667 215° Southwest 430 495 36,000  Level Gander Center
Thu 11:45:48 AM 58.3333 -68.1167 223° Southwest 430 495 36,000  Level Gander Center
Thu 11:46:48 AM 58.2167 -68.2500 211° Southwest 440 506 36,000  Level Gander Center
Thu 11:47:48 AM 58.1500 -68.4000 230° Southwest 450 518 36,000  Level Gander Center
Thu 11:48:35 AM 58.0667 -68.4833 208° Southwest 520 598 36,000  Level Gander Center
Thu 11:49:37 AM 57.9667 -68.5667 204° Southwest 430 495 36,000  Level Montreal Center
Thu 11:50:37 AM 57.8833 -68.7167 224° Southwest 420 483 36,000  Level Montreal Center
Thu 11:51:37 AM 57.7833 -68.8167 208° Southwest 420 483 36,000  Level Montreal Center
Thu 11:52:37 AM 57.6833 -68.9667 219° Southwest 420 483 36,000  Level Montreal Center
Thu 11:53:37 AM 57.5833 -69.0833 212° Southwest 420 483 36,000  Level Montreal Center
Thu 11:54:37 AM 57.4833 -69.2333 219° Southwest 420 483 36,000  Level Montreal Center
Thu 11:55:37 AM 57.4000 -69.3667 221° Southwest 420 483 36,000  Level Montreal Center
Thu 11:56:37 AM 57.3000 -69.4833 212° Southwest 420 483 36,000  Level Montreal Center
Thu 11:57:37 AM 57.2000 -69.6167 216° Southwest 420 483 36,000  Level Montreal Center
Thu 11:58:37 AM 57.1000 -69.7333 212° Southwest 420 483 36,000  Level Montreal Center
Thu 11:59:37 AM 57.0167 -69.8667 221° Southwest 420 483 36,000  Level Montreal Center
Thu 12:00:37 PM 56.9167 -69.9833 213° Southwest 420 483 36,000  Level Montreal Center
Thu 12:01:37 PM 56.8167 -70.1167 216° Southwest 420 483 36,000  Level Montreal Center
Thu 12:02:37 PM 56.7333 -70.2167 213° Southwest 420 483 36,000  Level Montreal Center
Thu 12:03:37 PM 56.6333 -70.3333 213° Southwest 420 483 36,000  Level Montreal Center
Thu 12:04:37 PM 56.5333 -70.4667 216° Southwest 420 483 36,000  Level Montreal Center
Thu 12:05:37 PM 56.4167 -70.6000 212° Southwest 420 483 36,000  Level Montreal Center
Thu 12:06:37 PM 56.3333 -70.7000 214° Southwest 420 483 36,000  Level Montreal Center
Thu 12:07:37 PM 56.2500 -70.8333 222° Southwest 420 483 36,000  Level Montreal Center
Thu 12:08:37 PM 56.1333 -70.9500 209° Southwest 420 483 36,000  Level Montreal Center
Thu 12:09:37 PM 56.0333 -71.0833 217° Southwest 420 483 36,000  Level Montreal Center
Thu 12:10:37 PM 55.9333 -71.1833 209° Southwest 420 483 36,000  Level Montreal Center
Thu 12:11:37 PM 55.8500 -71.3167 222° Southwest 420 483 36,000  Level Montreal Center
Thu 12:12:37 PM 55.7500 -71.4167 209° Southwest 410 472 36,000  Level Montreal Center
Thu 12:13:37 PM 55.6500 -71.5167 209° Southwest 410 472 36,000  Level Montreal Center
Thu 12:14:37 PM 55.5500 -71.6500 217° Southwest 420 483 36,000  Level Montreal Center
Thu 12:15:37 PM 55.4667 -71.7500 214° Southwest 410 472 36,000  Level Montreal Center
Thu 12:16:37 PM 55.3833 -71.8667 219° Southwest 410 472 36,000  Level Montreal Center
Thu 12:17:37 PM 55.2833 -71.9667 210° Southwest 410 472 36,000  Level Montreal Center
Thu 12:18:37 PM 55.1833 -72.0667 210° Southwest 410 472 36,000  Level Montreal Center
Thu 12:19:37 PM 55.0833 -72.2000 217° Southwest 410 472 36,000  Level Montreal Center
Thu 12:20:37 PM 54.9833 -72.3000 210° Southwest 410 472 36,000  Level Montreal Center
Thu 12:21:37 PM 54.8833 -72.4167 214° Southwest 400 460 36,000  Level Montreal Center
Thu 12:22:37 PM 54.7833 -72.5167 210° Southwest 410 472 36,000  Level Montreal Center
Thu 12:23:37 PM 54.6833 -72.6333 214° Southwest 410 472 36,000  Level Montreal Center
Thu 12:24:37 PM 54.6000 -72.7333 215° Southwest 410 472 36,000  Level Montreal Center
Thu 12:25:37 PM 54.5167 -72.8333 215° Southwest 400 460 36,000  Level Montreal Center
Thu 12:26:37 PM 54.4167 -72.9500 214° Southwest 410 472 36,000  Level Montreal Center
Thu 12:27:37 PM 54.3167 -73.0500 210° Southwest 400 460 36,000  Level Montreal Center
Thu 12:28:37 PM 54.2167 -73.1333 206° Southwest 400 460 36,000  Level Montreal Center
Thu 12:29:37 PM 54.1167 -73.2667 218° Southwest 400 460 36,000  Level Montreal Center
Thu 12:30:37 PM 54.0167 -73.3500 206° Southwest 400 460 36,000  Level Montreal Center
Thu 12:31:37 PM 53.9167 -73.4833 218° Southwest 400 460 36,000  Level Montreal Center
Thu 12:32:37 PM 53.8333 -73.5667 211° Southwest 400 460 36,000  Level Montreal Center
Thu 12:33:37 PM 53.7333 -73.6500 206° Southwest 400 460 36,000  Level Montreal Center
Thu 12:34:37 PM 53.6333 -73.7500 211° Southwest 410 472 36,000  Level Montreal Center
Thu 12:35:37 PM 53.5333 -73.8333 206° Southwest 400 460 36,000  Level Montreal Center
Thu 12:36:37 PM 53.4333 -73.9333 211° Southwest 400 460 36,000  Level Montreal Center
Thu 12:37:37 PM 53.3333 -74.0167 206° Southwest 400 460 36,000  Level Montreal Center
Thu 12:38:37 PM 53.2333 -74.0833 202° Southwest 400 460 36,000  Level Montreal Center
Thu 12:39:37 PM 53.1333 -74.1667 207° Southwest 400 460 36,000  Level Montreal Center
Thu 12:40:37 PM 53.0333 -74.2500 207° Southwest 390 449 36,000  Level Montreal Center
Thu 12:41:37 PM 52.9500 -74.3500 216° Southwest 390 449 36,000  Level Montreal Center
Thu 12:42:37 PM 52.8333 -74.4000 195° South 390 449 36,000  Level Montreal Center
Thu 12:43:37 PM 52.7333 -74.4833 207° Southwest 390 449 36,000  Level Montreal Center
Thu 12:44:37 PM 52.6500 -74.5833 216° Southwest 390 449 36,000  Level Montreal Center
Thu 12:45:37 PM 52.5500 -74.6667 207° Southwest 400 460 36,000  Level Montreal Center
Thu 12:46:37 PM 52.4333 -74.7500 204° Southwest 390 449 36,000  Level Montreal Center
Thu 12:47:37 PM 52.3333 -74.8000 197° South 400 460 36,000  Level Montreal Center
Thu 12:48:37 PM 52.2333 -74.9000 211° Southwest 390 449 36,000  Level Montreal Center
Thu 12:49:37 PM 52.1333 -74.9833 207° Southwest 400 460 36,000  Level Montreal Center
Thu 12:50:37 PM 52.0333 -75.0667 207° Southwest 400 460 36,000  Level Montreal Center
Thu 12:51:37 PM 51.9333 -75.1500 207° Southwest 390 449 36,000  Level Montreal Center
Thu 12:52:37 PM 51.8500 -75.2000 200° South 390 449 36,000  Level Montreal Center
Thu 12:53:37 PM 51.7333 -75.2833 204° Southwest 390 449 36,000  Level Montreal Center
Thu 12:54:37 PM 51.6500 -75.3667 212° Southwest 390 449 36,000  Level Montreal Center
Thu 12:55:37 PM 51.5500 -75.4167 197° South 390 449 36,000  Level Montreal Center
Thu 12:56:37 PM 51.4500 -75.5000 207° Southwest 390 449 36,000  Level Montreal Center
Thu 12:57:37 PM 51.3500 -75.5833 208° Southwest 380 437 36,000  Level Montreal Center
Thu 12:58:37 PM 51.2667 -75.6500 207° Southwest 380 437 36,000  Level Montreal Center
Thu 12:59:37 PM 51.1667 -75.7167 203° Southwest 370 426 36,000  Level Montreal Center
Thu 01:00:37 PM 51.0667 -75.8000 208° Southwest 370 426 36,000  Level Montreal Center
Thu 01:01:37 PM 50.9833 -75.8500 201° Southwest 370 426 36,000  Level Montreal Center
Thu 01:02:37 PM 50.8833 -75.9333 208° Southwest 370 426 36,000  Level Montreal Center
Thu 01:03:37 PM 50.8000 -76.0000 207° Southwest 370 426 36,000  Level Montreal Center
Thu 01:04:37 PM 50.7000 -76.0667 203° Southwest 370 426 36,000  Level Montreal Center
Thu 01:05:37 PM 50.6167 -76.1500 212° Southwest 370 426 36,000  Level Montreal Center
Thu 01:06:37 PM 50.5167 -76.2000 198° South 370 426 36,000  Level Montreal Center
Thu 01:07:37 PM 50.4167 -76.2833 208° Southwest 370 426 36,000  Level Montreal Center
Thu 01:08:37 PM 50.3333 -76.3333 201° Southwest 370 426 36,000  Level Montreal Center
Thu 01:09:37 PM 50.2333 -76.4167 208° Southwest 370 426 36,000  Level Montreal Center
Thu 01:10:37 PM 50.1500 -76.4833 207° Southwest 370 426 36,000  Level Montreal Center
Thu 01:11:37 PM 50.0333 -76.5500 200° South 380 437 36,000  Level Montreal Center
Thu 01:12:37 PM 49.9333 -76.6167 203° Southwest 380 437 36,000  Level Montreal Center
Thu 01:13:37 PM 49.8333 -76.7000 208° Southwest 380 437 36,000  Level Montreal Center
Thu 01:14:37 PM 49.7500 -76.7500 201° Southwest 380 437 36,000  Level Montreal Center
Thu 01:15:37 PM 49.6333 -76.8167 200° South 390 449 36,000  Level Montreal Center
Thu 01:16:37 PM 49.5500 -76.9000 213° Southwest 370 426 36,000  Level Montreal Center
Thu 01:17:37 PM 49.4500 -76.9667 203° Southwest 380 437 36,000  Level Montreal Center
Thu 01:18:37 PM 49.3500 -77.0167 198° South 400 460 36,000  Level Montreal Center
Thu 01:19:37 PM 49.2667 -77.1000 213° Southwest 370 426 36,000  Level Montreal Center
Thu 01:20:37 PM 49.1667 -77.1500 198° South 370 426 36,000  Level Montreal Center
Thu 01:21:37 PM 49.0667 -77.2167 204° Southwest 390 449 36,000  Level Montreal Center
Thu 01:22:37 PM 48.9667 -77.3000 209° Southwest 380 437 36,000  Level Montreal Center
Thu 01:23:37 PM 48.8667 -77.3500 198° South 390 449 36,000  Level Montreal Center
Thu 01:24:37 PM 48.7667 -77.4167 204° Southwest 380 437 36,000  Level Montreal Center
Thu 01:25:37 PM 48.6667 -77.5000 209° Southwest 390 449 36,000  Level Montreal Center
Thu 01:26:37 PM 48.5667 -77.5667 204° Southwest 390 449 36,000  Level Montreal Center
Thu 01:27:37 PM 48.4833 -77.6167 202° Southwest 380 437 36,000  Level Montreal Center
Thu 01:28:37 PM 48.3833 -77.6833 204° Southwest 380 437 36,000  Level Montreal Center
Thu 01:29:37 PM 48.2833 -77.7667 209° Southwest 390 449 36,000  Level Montreal Center
Thu 01:30:37 PM 48.1833 -77.8333 204° Southwest 390 449 36,000  Level Montreal Center
Thu 01:31:37 PM 48.0833 -77.8833 198° South 390 449 36,000  Level Montreal Center
Thu 01:32:37 PM 47.9667 -77.9500 201° Southwest 400 460 36,000  Level Montreal Center
Thu 01:33:37 PM 47.8667 -78.0000 199° South 400 460 36,000  Level Montreal Center
Thu 01:34:37 PM 47.7500 -78.0667 201° Southwest 400 460 36,000  Level Montreal Center
Thu 01:35:37 PM 47.6500 -78.1167 199° South 400 460 36,000  Level Montreal Center
Thu 01:36:37 PM 47.5667 -78.1833 208° Southwest 400 460 36,000  Level Montreal Center
Thu 01:37:37 PM 47.4500 -78.2500 201° Southwest 390 449 36,000  Level Montreal Center
Thu 01:38:37 PM 47.3500 -78.3000 199° South 390 449 36,000  Level Montreal Center
Thu 01:39:37 PM 47.2500 -78.3667 204° Southwest 390 449 36,000  Level Montreal Center
Thu 01:40:37 PM 47.1500 -78.4167 199° South 400 460 36,000  Level Montreal Center
Thu 01:41:37 PM 47.0333 -78.4833 201° Southwest 400 460 36,000  Level Montreal Center
Thu 01:42:37 PM 46.9333 -78.5167 193° South 390 449 36,000  Level Montreal Center
Thu 01:43:21 PM 46.8667 -78.5333 190° South 400 460 36,000  Level Toronto Center
Thu 01:44:21 PM 46.7667 -78.6167 210° Southwest 390 449 36,000  Level Toronto Center
Thu 01:45:21 PM 46.6667 -78.6667 199° South 390 449 36,000  Level Toronto Center
Thu 01:46:21 PM 46.5667 -78.7167 199° South 400 460 36,000  Level Toronto Center
Thu 01:47:21 PM 46.4667 -78.7667 199° South 400 460 36,000  Level Toronto Center
Thu 01:48:21 PM 46.3500 -78.8333 202° Southwest 400 460 36,000  Level Toronto Center
Thu 01:49:21 PM 46.2500 -78.8833 199° South 400 460 36,000  Level Toronto Center
Thu 01:50:21 PM 46.1333 -78.9500 202° Southwest 400 460 36,000  Level Toronto Center
Thu 01:51:21 PM 46.0333 -79.0000 199° South 400 460 36,000  Level Toronto Center
Thu 01:52:21 PM 45.9333 -79.0500 199° South 400 460 36,000  Level Toronto Center
Thu 01:57:52 PM 45.4206 -79.3571 199° South 393 452 36,000  Level FlightAware ADS-B
Thu 02:00:31 PM 45.1034 -79.5235 200° South 396 456 36,000  Level FlightAware ADS-B
Thu 02:01:24 PM 45.0675 -79.5423 200° South 402 463 36,000  Level FlightAware ADS-B (CYKF)
Thu 02:02:04 PM 44.9563 -79.6001 200° South 400 460 36,000  Level FlightAware ADS-B
Thu 02:02:47 PM 44.8464 -79.6570 200° South 409 471 36,000  Level FlightAware ADS-B (EPLB / LUZ)
Thu 02:03:24 PM 44.7819 -79.6903 200° South 411 473 36,000  Level FlightAware ADS-B (EPLB / LUZ)
Thu 02:04:06 PM 44.7071 -79.7289 200° South 410 472 36,000  Level FlightAware ADS-B (EPLB / LUZ)
Thu 02:04:43 PM 44.6424 -79.7621 200° South 410 472 36,000  Level FlightAware ADS-B (EPLB / LUZ)
Thu 02:04:56 PM 44.6365 -79.7651 200° South 410 472 36,000  Level FlightAware ADS-B (CYKF)
Thu 02:05:30 PM 44.5742 -79.8022 203° Southwest 402 463 36,000  Level FlightAware ADS-B
Thu 02:06:11 PM 44.5006 -79.8656 212° Southwest 404 465 36,000  Level FlightAware ADS-B
Thu 02:06:51 PM 44.4430 -79.9183 213° Southwest 405 466 36,000  Level FlightAware ADS-B
Thu 02:07:31 PM 44.3724 -79.9820 213° Southwest 406 467 36,000  Level FlightAware ADS-B
Thu 02:08:03 PM 44.3155 -80.0331 213° Southwest 414 476 36,000  Level FlightAware ADS-B (EPLB / LUZ)
Thu 02:08:43 PM 44.2504 -80.0913 213° Southwest 416 479 36,000  Level FlightAware ADS-B (EPLB / LUZ)
Thu 02:09:13 PM 44.2022 -80.1344 213° Southwest 416 479 36,000  Level FlightAware ADS-B (CYKF)
Thu 02:10:07 PM 44.2022 -80.1344 213° Southwest 418 481 36,000  Level FlightAware ADS-B (CYKF)
Thu 02:10:47 PM 44.0602 -80.2606 213° Southwest 424 488 36,000  Level FlightAware ADS-B (CYKF)
Thu 02:11:19 PM 43.9955 -80.3178 212° Southwest 423 487 36,000  Level FlightAware ADS-B (EPLB / LUZ)
Thu 02:12:07 PM 43.9206 -80.3840 212° Southwest 421 484 36,000  Level FlightAware ADS-B (CYKF)
Thu 02:12:43 PM 43.8619 -80.4357 212° Southwest 421 484 36,000  Level FlightAware ADS-B (CYKF)
Thu 02:13:17 PM 43.8030 -80.4875 212° Southwest 421 484 36,000  Level FlightAware ADS-B (CYKF)
Thu 02:13:51 PM 43.7473 -80.5363 212° Southwest 422 486 36,000  Level FlightAware ADS-B (EPLB / LUZ)
Thu 02:14:23 PM 43.6936 -80.5833 212° Southwest 422 486 36,000  Level FlightAware ADS-B (EPLB / LUZ)
Thu 02:15:15 PM 43.6082 -80.6579 212° Southwest 423 487 36,000  Level FlightAware ADS-B (CYKF)
Thu 02:16:02 PM 43.5315 -80.7245 212° Southwest 425 489 36,000  Level FlightAware ADS-B (EPLB / LUZ)
Thu 02:16:40 PM 43.4816 -80.7679 212° Southwest 426 490 36,000  Level FlightAware ADS-B (EPLB / LUZ)
Thu 02:17:19 PM 43.4511 -80.7943 212° Southwest 427 491 36,000  Level FlightAware ADS-B (CYKF)
Thu 02:17:59 PM 43.3347 -80.8951 212° Southwest 428 493 36,000  Level FlightAware ADS-B (EPLB / LUZ)
Thu 02:18:38 PM 43.2726 -80.9483 212° Southwest 430 495 36,000  Level FlightAware ADS-B (EPLB / LUZ)
Thu 02:19:18 PM 43.2034 -81.0077 212° Southwest 430 495 36,000  Level FlightAware ADS-B (EPLB / LUZ)
Thu 02:19:58 PM 43.1389 -81.0629 212° Southwest 430 495 36,000  Level FlightAware ADS-B (EPLB / LUZ)
Thu 02:20:42 PM 43.0646 -81.1262 212° Southwest 429 494 36,000  Level FlightAware ADS-B (EPLB / LUZ)
Thu 02:21:03 PM 43.0298 -81.1528 209° Southwest 430 495 36,000  Level FlightAware ADS-B (CYKF)
Thu 02:21:45 PM 42.9546 -81.1992 204° Southwest 430 495 36,000  Level FlightAware ADS-B (CYKF)
Thu 02:22:35 PM 42.8575 -81.2603 205° Southwest 431 496 36,000  Level FlightAware ADS-B (EPLB / LUZ)
Thu 02:23:07 PM 42.7997 -81.2961 204° Southwest 432 497 36,000  Level FlightAware ADS-B (CYKF)
Thu 02:23:55 PM 42.7172 -81.3471 204° Southwest 435 501 36,000  Level FlightAware ADS-B (EPLB / LUZ)
Thu 02:24:27 PM 42.6532 -81.3862 204° Southwest 435 501 36,000  Level FlightAware ADS-B (EPLB / LUZ)
Thu 02:25:06 PM 42.5884 -81.4257 204° Southwest 434 499 36,000  Level FlightAware ADS-B (EPLB / LUZ)
Thu 02:25:38 PM 42.5315 -81.4604 204° Southwest 434 499 36,000  Level FlightAware ADS-B (EPLB / LUZ)
Thu 02:26:09 PM 42.4992 -81.4802 204° Southwest 433 498 36,000  Level FlightAware ADS-B (EPLB / LUZ)
Thu 02:26:47 PM 42.3971 -81.5422 204° Southwest 433 498 36,000  Level FlightAware ADS-B (EPLB / LUZ)
Thu 02:27:35 PM 42.3468 -81.5727 204° Southwest 434 499 36,000  Level FlightAware ADS-B (EPLB / LUZ)
Thu 02:28:06 PM 42.2550 -81.6282 204° Southwest 436 502 36,000  Level FlightAware ADS-B (EPLB / LUZ)
Thu 02:28:53 PM 42.2550 -81.6282 204° Southwest 438 504 36,000  Level FlightAware ADS-B (EPLB / LUZ)
Thu 02:29:25 PM 42.1244 -81.7072 204° Southwest 437 503 36,000  Level Cleveland Center
Thu 02:30:26 PM 42.0128 -81.7742 204° Southwest 436 502 36,000  Level Cleveland Center
Thu 02:31:27 PM 41.9003 -81.8403 204° Southwest 438 504 36,000  Level Cleveland Center
Thu 02:32:29 PM 41.7703 -81.9172 204° Southwest 435 501 36,000  Level Cleveland Center
Thu 02:33:30 PM 41.6594 -81.9844 204° Southwest 437 503 36,000  Level Cleveland Center
Thu 02:34:31 PM 41.5472 -82.0506 204° Southwest 440 506 36,000  Level Cleveland Center
Thu 02:35:33 PM 41.4350 -82.1167 204° Southwest 441 507 36,000  Level Cleveland Center
Thu 02:36:34 PM 41.3203 -82.1744 201° Southwest 442 509 36,000  Level Cleveland Center
Thu 02:37:36 PM 41.2003 -82.2167 195° South 446 513 36,000  Level Cleveland Center
Thu 02:38:37 PM 41.0814 -82.2611 196° South 445 512 36,000  Level Cleveland Center
Thu 02:39:38 PM 40.9600 -82.3036 195° South 448 516 36,000  Level Cleveland Center
Thu 02:40:24 PM 40.8575 -82.3400 195° South 448 516 36,000  Level Indianapolis Center
Thu 02:41:25 PM 40.7358 -82.3828 195° South 450 518 36,000  Level Indianapolis Center
Thu 02:42:27 PM 40.6147 -82.4253 195° South 448 516 36,000  Level Indianapolis Center
Thu 02:43:28 PM 40.4925 -82.4694 195° South 451 519 36,000  Level Indianapolis Center
Thu 02:49:26 PM 39.7280 -82.6172 195° South 464 534 36,000  Level FlightAware ADS-B
Thu 02:49:59 PM 39.6598 -82.6218 183° South 464 534 36,000  Level FlightAware ADS-B
Thu 02:50:39 PM 39.5807 -82.6272 183° South 465 535 36,000  Level FlightAware ADS-B
Thu 02:51:12 PM 39.5068 -82.6321 183° South 466 536 36,000  Level FlightAware ADS-B
Thu 02:51:53 PM 39.4143 -82.6383 183° South 465 535 36,000  Level FlightAware ADS-B
Thu 02:52:23 PM 39.3630 -82.6417 183° South 466 536 36,000  Level FlightAware ADS-B
Thu 02:53:15 PM 39.2367 -82.6502 183° South 467 537 36,000  Level FlightAware ADS-B
Thu 02:53:57 PM 39.1469 -82.6561 183° South 469 540 36,000  Level FlightAware ADS-B
Thu 02:54:51 PM 39.0302 -82.6638 183° South 470 541 36,000  Level FlightAware ADS-B
Thu 02:55:31 PM 38.9431 -82.6696 183° South 471 542 36,000  Level FlightAware ADS-B
Thu 02:56:06 PM 38.8660 -82.6746 183° South 472 543 36,000  Level FlightAware ADS-B
Thu 02:56:49 PM 38.7757 -82.6805 183° South 472 543 36,000  Level FlightAware ADS-B
Thu 02:57:22 PM 38.7109 -82.6848 183° South 471 542 36,000  Level FlightAware ADS-B
Thu 02:58:49 PM 38.5175 -82.6978 183° South 472 543 36,000  Level Indianapolis Center
Thu 02:59:50 PM 38.3850 -82.7067 183° South 475 547 36,000  Level Indianapolis Center
Thu 03:00:51 PM 38.2519 -82.7147 183° South 477 549 36,000  Level Indianapolis Center
Thu 03:01:53 PM 38.1194 -82.7253 184° South 477 549 36,000  Level Indianapolis Center
Thu 03:02:54 PM 37.9864 -82.7333 183° South 477 549 36,000  Level Indianapolis Center
Thu 03:03:55 PM 37.8525 -82.7422 183° South 479 551 36,000  Level Indianapolis Center
Thu 03:04:56 PM 37.7197 -82.7550 184° South 480 552 36,000  Level Indianapolis Center
Thu 03:05:58 PM 37.5939 -82.8058 198° South 475 547 36,000  Level Indianapolis Center
Thu 03:06:59 PM 37.4794 -82.8831 208° Southwest 468 539 36,000  Level Indianapolis Center
Thu 03:08:00 PM 37.3461 -82.9700 207° Southwest 465 535 36,000  Level Indianapolis Center
Thu 03:09:02 PM 37.2317 -83.0447 207° Southwest 465 535 36,000  Level Indianapolis Center
Thu 03:10:03 PM 37.1175 -83.1181 207° Southwest 464 534 36,000  Level Indianapolis Center
Thu 03:11:04 PM 37.0058 -83.1928 208° Southwest 461 531 36,000  Level Indianapolis Center
Thu 03:12:06 PM 36.8917 -83.2664 207° Southwest 464 534 36,000  Level Indianapolis Center
Thu 03:13:07 PM 36.7769 -83.3400 207° Southwest 465 535 36,000  Level Indianapolis Center
Thu 03:14:08 PM 36.6428 -83.4256 207° Southwest 465 535 36,000  Level Indianapolis Center
Thu 03:15:10 PM 36.5281 -83.4989 207° Southwest 464 534 36,000  Level Indianapolis Center
Thu 03:16:11 PM 36.4061 -83.5764 207° Southwest 464 534 36,000  Level Indianapolis Center
Thu 03:17:13 PM 36.2922 -83.6483 207° Southwest 461 531 36,000  Level Indianapolis Center
Thu 03:18:14 PM 36.1831 -83.7172 207° Southwest 446 513 36,000  Level Indianapolis Center
Thu 03:19:15 PM 36.0736 -83.7875 207° Southwest 442 509 36,000  Level Indianapolis Center
Thu 03:25:14 PM 35.3386 -84.0319 207° Southwest 463 533 36,000  Level FlightAware ADS-B (KDZJ)
Thu 03:26:08 PM 35.2139 -84.0620 191° South 472 543 36,000  Level FlightAware ADS-B (KDZJ)
Thu 03:26:49 PM 35.1277 -84.0826 191° South 462 532 36,000  Level FlightAware ADS-B (KDZJ)
Thu 03:27:27 PM 35.0539 -84.1003 191° South 462 532 36,000  Level FlightAware ADS-B (KDZJ)
Thu 03:28:09 PM 34.9578 -84.1233 191° South 463 533 36,000  Level FlightAware ADS-B (KDZJ)
Thu 03:28:48 PM 34.8733 -84.1433 191° South 463 533 36,000  Level FlightAware ADS-B (KDZJ)
Thu 03:29:29 PM 34.7846 -84.1645 191° South 473 544 36,000  Level FlightAware ADS-B (KDZJ)
Thu 03:30:10 PM 34.6995 -84.1846 191° South 463 533 36,000  Level FlightAware ADS-B (KDZJ)
Thu 03:30:49 PM 34.6177 -84.2039 191° South 472 543 36,000  Level FlightAware ADS-B (KDZJ)
Thu 03:31:30 PM 34.5298 -84.2246 191° South 473 544 36,000  Level FlightAware ADS-B (KDZJ)
Thu 03:32:09 PM 34.4409 -84.2457 191° South 473 544 36,000  Level FlightAware ADS-B (KDZJ)
Thu 03:32:50 PM 34.3537 -84.2663 191° South 475 547 36,000  Level FlightAware ADS-B (KDZJ)
Thu 03:33:29 PM 34.2695 -84.2859 191° South 474 545 36,000  Level FlightAware ADS-B (KDZJ)
Thu 03:34:11 PM 34.1819 -84.3065 191° South 473 544 36,000  Level FlightAware ADS-B (KDZJ)
Thu 03:34:49 PM 34.0969 -84.3264 191° South 462 532 36,000  Level FlightAware ADS-B (KDZJ)
Thu 03:35:30 PM 34.0130 -84.3460 191° South 472 543 36,000  Level FlightAware ADS-B (KDZJ)
Thu 03:36:02 PM 33.9490 -84.3609 191° South 472 543 36,000  Level FlightAware ADS-B (KDZJ)
Thu 03:37:23 PM 33.7853 -84.4011 191° South 476 548 36,000  Level Atlanta Center
Thu 03:38:23 PM 33.6539 -84.4306 191° South 476 548 36,000  Level Atlanta Center
Thu 03:39:23 PM 33.5036 -84.4375 182° South 481 554 36,000 -50 Level Atlanta Center
Thu 03:40:23 PM 33.3658 -84.4344 179° South 494 568 35,900 -450 Descending Atlanta Center
Thu 03:41:23 PM 33.2258 -84.4336 180° South 494 568 35,100 -450 Descending Atlanta Center
Thu 03:42:23 PM 33.0881 -84.4281 178° South 494 568 35,000 -50 Descending Atlanta Center
Thu 03:43:23 PM 32.9483 -84.4275 180° South 494 568 35,000  Level Atlanta Center
Thu 03:44:23 PM 32.8042 -84.4244 179° South 499 574 35,000  Level Atlanta Center
Thu 03:45:23 PM 32.6792 -84.4164 177° South 499 574 35,000  Level Atlanta Center
Thu 03:46:23 PM 32.5392 -84.4133 179° South 499 574 35,000  Level Atlanta Center
Thu 03:47:23 PM 32.3972 -84.4103 179° South 504 580 35,000  Level Atlanta Center
Thu 03:48:23 PM 32.2553 -84.4097 180° South 504 580 35,000  Level Atlanta Center
Thu 03:49:46 PM 32.0572 -84.4025 178° South 511 588 35,000  Level Jacksonville Center
Thu 03:50:46 PM 31.9133 -84.4003 179° South 516 594 35,000  Level Jacksonville Center
Thu 03:51:46 PM 31.7714 -84.4003 180° South 516 594 35,000  Level Jacksonville Center
Thu 03:58:05 PM 30.8943 -84.3805 180° South 499 574 35,000  Level FlightAware ADS-B (KONZ)
Thu 03:59:03 PM 30.7336 -84.3770 179° South 496 571 35,000  Level FlightAware ADS-B (KONZ)
Thu 03:59:44 PM 30.6492 -84.3669 174° South 504 580 35,000  Level FlightAware ADS-B (KONZ)
Thu 04:00:29 PM 30.5479 -84.3403 167° South 513 590 35,000  Level FlightAware ADS-B (KONZ)
Thu 04:01:07 PM 30.4756 -84.3113 161° South 522 601 35,000  Level FlightAware ADS-B (KONZ)
Thu 04:01:48 PM 30.3658 -84.2486 154° Southeast 531 611 35,000  Level FlightAware ADS-B (KONZ)
Thu 04:02:29 PM 30.2753 -84.1895 151° Southeast 532 612 35,000  Level FlightAware ADS-B (KONZ)
Thu 04:03:09 PM 30.1960 -84.1380 151° Southeast 532 612 35,000  Level FlightAware ADS-B (KONZ)
Thu 04:03:43 PM 30.1159 -84.0860 151° Southeast 533 613 35,000  Level FlightAware ADS-B (KONZ)
Thu 04:04:27 PM 30.0214 -84.0245 151° Southeast 533 613 35,000  Level FlightAware ADS-B (KONZ)
Thu 04:05:46 PM 29.8572 -83.9200 151° Southeast 533 613 35,000  Level Jacksonville Center
Thu 04:06:46 PM 29.7306 -83.8397 151° Southeast 533 613 35,000  Level Jacksonville Center
Thu 04:07:46 PM 29.5997 -83.7547 151° Southeast 533 613 35,000  Level Jacksonville Center
Thu 04:08:46 PM 29.4728 -83.6703 150° Southeast 528 608 35,000  Level Jacksonville Center
Thu 04:09:46 PM 29.3439 -83.5883 151° Southeast 528 608 35,000  Level Jacksonville Center
Thu 04:10:46 PM 29.2128 -83.5064 151° Southeast 528 608 35,000  Level Jacksonville Center
Thu 04:11:46 PM 29.0858 -83.4272 151° Southeast 528 608 35,000  Level Jacksonville Center
Thu 04:12:46 PM 28.9567 -83.3433 150° Southeast 528 608 35,000  Level Jacksonville Center
Thu 04:18:40 PM 28.1989 -82.8651 150° Southeast 520 598 35,000  Level FlightAware ADS-B
Thu 04:21:27 PM 27.8471 -82.6452 151° Southeast 520 598 35,000  Level FlightAware ADS-B
Thu 04:22:08 PM 27.7639 -82.5885 149° Southeast 521 600 35,000  Level FlightAware ADS-B
Thu 04:22:48 PM 27.6814 -82.5331 149° Southeast 519 597 35,000  Level FlightAware ADS-B
Thu 04:23:28 PM 27.5987 -82.4781 149° Southeast 515 593 35,000  Level FlightAware ADS-B
Thu 04:24:23 PM 27.4861 -82.4034 150° Southeast 515 593 35,000  Level FlightAware ADS-B
Thu 04:25:21 PM 27.3701 -82.3263 149° Southeast 497 572 35,000  Level FlightAware ADS-B
Thu 04:26:00 PM 27.2924 -82.2749 150° Southeast 490 564 35,000  Level FlightAware ADS-B
Thu 04:26:48 PM 27.1998 -82.2141 150° Southeast 483 556 35,000  Level FlightAware ADS-B
Thu 04:29:27 PM 26.8784 -82.0777 159° South 462 532 35,000  Level FlightAware ADS-B
Thu 04:30:08 PM 26.7959 -82.0437 160° South 459 528 35,000  Level FlightAware ADS-B
Thu 04:30:48 PM 26.7196 -82.0121 160° South 456 525 35,000  Level FlightAware ADS-B
Thu 04:31:27 PM 26.6387 -81.9788 160° South 453 521 35,000  Level FlightAware ADS-B
Thu 04:32:09 PM 26.5562 -81.9447 160° South 451 519 35,000  Level FlightAware ADS-B
Thu 04:32:49 PM 26.4790 -81.9130 160° South 450 518 35,000  Level FlightAware ADS-B
Thu 04:33:28 PM 26.4033 -81.8819 160° South 448 516 35,000  Level FlightAware ADS-B
Thu 04:34:09 PM 26.3233 -81.8492 160° South 446 513 35,000  Level FlightAware ADS-B
Thu 04:34:48 PM 26.2470 -81.8180 160° South 447 514 35,000  Level FlightAware ADS-B
Thu 04:35:26 PM 26.1724 -81.7875 160° South 448 516 35,000  Level FlightAware ADS-B
Thu 04:36:26 PM 26.0781 -81.7483 160° South 447 514 35,000  Level Miami Center
Thu 04:37:26 PM 25.9583 -81.7019 161° South 447 514 35,000  Level Miami Center
Thu 04:38:26 PM 25.8408 -81.6558 161° South 447 514 35,000  Level Miami Center
Thu 04:39:26 PM 25.7236 -81.6050 159° South 447 514 35,000  Level Miami Center
Thu 04:40:26 PM 25.6039 -81.5611 162° South 447 514 35,000  Level Miami Center
Thu 04:41:26 PM 25.4853 -81.5450 173° South 445 512 35,000  Level Miami Center
Thu 04:42:26 PM 25.3703 -81.5519 183° South 424 488 35,000  Level Miami Center
Thu 04:43:26 PM 25.2628 -81.5847 195° South 410 472 35,000 -350 Level Miami Center
Thu 04:44:26 PM 25.1511 -81.6147 194° South 410 472 34,300 -850 Descending Miami Center
Thu 04:45:26 PM 25.0414 -81.6472 195° South 410 472 33,300 -1,000 Descending Miami Center
Thu 04:46:26 PM 24.9317 -81.6794 195° South 415 478 32,300 -1,050 Descending Miami Center
Thu 04:47:26 PM 24.8264 -81.7075 194° South 409 471 31,200 -1,050 Descending Miami Center
Thu 04:48:26 PM 24.7167 -81.7419 196° South 409 471 30,200 1,900 Descending Miami Center
Thu 04:49:26 PM 24.6044 -81.7878 200° South 409 471 35,000 -950 Climbing Miami Center
Thu 04:50:26 PM 24.5042 -81.8522 210° Southwest 417 480 28,300 -3,850 Descending Miami Center
Thu 04:51:26 PM 24.4367 -81.9339 228° Southwest 398 458 27,300 -1,000 Descending Miami Center
Thu 04:52:26 PM 24.3711 -82.0247 232° Southwest 382 440 26,300 -1,000 Descending Miami Center
Thu 04:53:26 PM 24.3053 -82.1131 231° Southwest 382 440 25,300 -1,000 Descending Miami Center
Thu 04:54:26 PM 24.2417 -82.2014 232° Southwest 382 440 24,300 -1,000 Descending Miami Center
Thu 04:55:26 PM 24.1781 -82.2853 230° Southwest 382 440 23,300 -1,000 Descending Miami Center
Thu 04:56:26 PM 24.1164 -82.3689 231° Southwest 370 426 22,300 -650 Descending Miami Center
Thu 04:57:26 PM 24.0428 -82.4453 223° Southwest 365 420 22,000 -300 Descending Miami Center
Thu 04:59:00 PM 23.8941 -82.5015 173° South  Level FlightAware Approximate
Thu 05:06:00 PM 23.0433 -82.4000 180° South  Level FlightAware Approximate
Thu 05:07:00 PM 22.9891 -82.4091 180° South  Level Estimated
Thu 05:08:00 PM 22.9891 -82.4091 180° South  Level Estimated
Thu 05:09:00 PM 22.9891 -82.4091 180° South  Level Estimated
Thu 05:10:00 PM 22.9891 -82.4091 180° South  Level Estimated
Thu 05:11:00 PM 22.9891 -82.4091 180° South  Level Estimated
Thu 05:12:00 PM 22.9891 -82.4091 180° South  Level Estimated
Thu 05:13:00 PM 22.9891 -82.4091 180° South  Level Estimated
Thu 05:14:00 PM 22.9891 -82.4091 180° South  Level Estimated
Thu 05:15:00 PM 22.9891 -82.4091 180° South  Level Estimated
Thu 05:16:00 PM 22.9891 -82.4091 180° South  Level Estimated
Thu 05:17:00 PM 22.9891 -82.4091 180° South  Level Estimated
Thu 05:18:00 PM 22.9891 -82.4091 180° South  Level Estimated
Thu 05:19:00 PM 22.9891 -82.4091 180° South  Level Estimated
Thu 05:20:00 PM 22.9891 -82.4091 180° South  Level Estimated
Thu 05:21:00 PM 22.9891 -82.4091 180° South  Level Estimated
Thu 05:22:00 PM 22.9891 -82.4091 180° South  Level Estimated
Thu 05:23:00 PM 22.9891 -82.4091 180° South  Level Estimated
Thu 05:24:00 PM 22.9891 -82.4091 180° South  Level Estimated
Thu 05:25:00 PM 22.9891 -82.4091 180° South  Level Estimated
Thu 05:26:00 PM 22.9891 -82.4091 180° South  Level Estimated
Thu 05:27:00 PM 22.9891 -82.4091 180° South  Level Estimated
Thu 05:28:00 PM 22.9891 -82.4091 180° South  Level Estimated

Login

Don't have an account? Register now (free) for customized features, flight alerts, and more!